Saturday, February 24, 2018, 3:21 AM EST
Back to Local

KNYG, Quantico Marine Corps Airfac

Location: MCB Quantico, VA, United States Lat: 38.5
Local Time: 3:21 AM EST ( 8:21 GMT) Lon: -77.3
Time Zone: US/Eastern Elev: 13 ft

Show me the last for .
Show Decoded

2018-02-24 02:56 METAR KNYG 240756Z AUTO 19003KT 7SM OVC005 10/10 A3020 RMK AO2 SLP226 T01000100
                 =
2018-02-24 02:34 METAR KNYG 240734Z AUTO 00000KT 7SM OVC005 11/10 A3021 RMK AO2 T01060100 =
2018-02-24 02:05 METAR KNYG 240705Z AUTO 00000KT 5SM BR OVC004 10/10 A3022 RMK AO2 T01000100 =
2018-02-24 01:56 METAR KNYG 240656Z AUTO 19005KT 5SM BR OVC006 10/10 A3022 RMK AO2 CIG 004V007
                 SLP233 T01000100 =
2018-02-24 00:56 METAR KNYG 240556Z AUTO 00000KT 5SM BR OVC007 10/10 A3024 RMK AO2 SLP242
                 T01000100 10100 20089 56018 =
2018-02-23 23:56 METAR KNYG 240456Z AUTO 18006KT 6SM BR OVC008 09/09 A3025 RMK AO2 SLP244
                 T00940094 400940056 =
2018-02-23 22:56 METAR KNYG 240356Z AUTO 19007KT 10SM OVC007 09/09 A3027 RMK AO2 SLP252 T00940094
                 =
2018-02-23 21:56 METAR KNYG 240256Z AUTO 21006KT 10SM OVC007 09/09 A3030 RMK AO2 SLP260 T00940089
                 56015 =
2018-02-23 20:56 METAR KNYG 240156Z AUTO 20006KT 10SM OVC008 09/09 A3031 RMK AO2 SLP266 T00940089
                 =
2018-02-23 19:56 METAR KNYG 240056Z AUTO 19007KT 10SM OVC008 09/09 A3032 RMK AO2 SLP267 T00940089
                 =
2018-02-23 18:56 METAR KNYG 232356Z AUTO 16004KT 10SM OVC009 09/08 A3034 RMK AO2 SLP275 T00890083
                 10089 20067 58010 =
2018-02-23 18:49 METAR KNYG 232349Z AUTO 15003KT 10SM OVC009 09/08 A3034 RMK AO2 T00890078 =
2018-02-23 17:56 METAR KNYG 232256Z AUTO 16004KT 10SM OVC011 09/08 A3035 RMK AO2 SLP278 T00890078
                 =
2018-02-23 16:56 METAR KNYG 232156Z AUTO 18006KT 10SM OVC011 09/07 A3037 RMK AO2 SLP283 T00890072
                 =
2018-02-23 15:56 METAR KNYG 232056Z AUTO 18009KT 10SM OVC010 08/07 A3037 RMK AO2 SLP285 T00830072
                 56041 =
2018-02-23 15:05 METAR KNYG 232005Z AUTO 21007KT 10SM BKN013 OVC017 08/06 A3041 RMK AO2 T00780061
                 =
2018-02-23 14:56 METAR KNYG 231956Z AUTO 21007KT 10SM BKN015 OVC022 08/06 A3042 RMK AO2 SLP302
                 T00780061 =
2018-02-23 14:28 METAR KNYG 231928Z AUTO 20006KT 10SM FEW010 BKN025 OVC030 08/07 A3043 RMK AO2
                 T00780067 =
2018-02-23 14:20 METAR KNYG 231920Z AUTO 20005KT 10SM FEW010 OVC030 08/07 A3043 RMK AO2 T00780067
                 =
2018-02-23 13:56 METAR KNYG 231856Z 18006KT 10SM SCT016 BKN022 OVC032 07/07 A3044 RMK AO2 SLP307
                 T00720067 =
2018-02-23 12:56 METAR KNYG 231756Z 00000KT 10SM OVC009 07/06 A3049 RMK AO2 DZE45 SLP327 P0000
                 60000 T00720061 10072 20056 58026 =
2018-02-23 11:56 METAR KNYG 231656Z 00000KT 4SM DZ BR OVC007 07/06 A3053 RMK AO2 DZB10 CIG
                 005V011 SLP338 P0000 T00670061 =
2018-02-23 10:56 METAR KNYG 231556Z 00000KT 6SM BR BKN009 OVC015 07/06 A3056 RMK AO2 SLP349
                 T00670056 =
2018-02-23 09:56 METAR KNYG 231456Z 11004KT 10SM BKN009 OVC015 06/05 A3057 RMK AO2 SLP353
                 T00610050 58005 =
2018-02-23 08:56 METAR KNYG 231356Z 09004KT 10SM BKN007 OVC013 06/05 A3059 RMK AO2 SLP360
                 T00610050 =
2018-02-23 07:56 METAR KNYG 231256Z 09006KT 5SM BR BKN007 OVC015 06/05 A3060 RMK AO2 SLP361
                 T00560050 =
2018-02-23 06:56 METAR KNYG 231156Z 07006KT 7SM BKN007 OVC014 06/05 A3059 RMK AO2 DZE10 SLP358
                 P0000 60001 7//// T00560050 10067 20056 58002 =
2018-02-23 05:56 METAR KNYG 231056Z AUTO 05006KT 4SM DZ BR BKN005 OVC016 06/05 A3059 RMK AO2 CIG
                 004V008 SLP360 P0001 T00560050 =
2018-02-23 05:24 METAR KNYG 231024Z AUTO 08006KT 3SM DZ BR BKN007 OVC014 06/05 A3059 RMK AO2 CIG
                 004V009 P0001 T00560050 =
2018-02-23 04:56 METAR KNYG 230956Z AUTO 00000KT 6SM DZ BR FEW006 OVC015 06/05 A3060 RMK AO2
                 SLP363 P0000 T00560050 =
2018-02-23 04:13 METAR KNYG 230913Z AUTO 10006KT 10SM DZ BR SCT009 OVC015 06/04 A3060 RMK AO2
                 P0000 T00560044 =
2018-02-23 03:56 METAR KNYG 230856Z AUTO 08007KT 10SM DZ BR BKN008 OVC015 06/05 A3059 RMK AO2
                 SLP361 P0000 60000 T00560050 58002 =
2018-02-23 03:53 METAR KNYG 230853Z AUTO 09006KT 10SM DZ BR SCT006 BKN012 OVC017 06/05 A3060 RMK
                 AO2 P0000 =

Support USWX by starting your Amazon purchase here.